Time;durP1;ratioP1;P1;durP2;ratioP2;P2;SDS_P1;SDS_P2;PMS_P1;PMS_P2;Temp;Humidity;BMP_temperature;BMP_pressure;BME280_temperature;BME280_humidity;BME280_pressure;Samples;Min_cycle;Max_cycle;Signal;HPM_P1;HPM_P2
2022/08/20 00:00:16;;;;;;;13.85;8.13;;;19.10;99.90;;;;;;6181333;23;20404;-75
2022/08/20 00:02:49;;;;;;;14.13;8.40;;;19.30;99.90;;;;;;6181305;23;20390;-75
2022/08/20 00:05:23;;;;;;;16.48;8.45;;;19.20;99.90;;;;;;6182653;23;20370;-75
2022/08/20 00:07:50;;;;;;;13.57;8.93;;;;;;;;;;6156369;23;20393;-75
2022/08/20 00:10:16;;;;;;;14.67;8.83;;;;;;;;;;6182487;23;20397;-75
2022/08/20 00:12:46;;;;;;;14.15;8.45;;;19.10;99.90;;;;;;6180263;23;20404;-75
2022/08/20 00:15:13;;;;;;;12.90;8.68;;;19.00;99.90;;;;;;6180981;23;20381;-75
2022/08/20 00:17:40;;;;;;;16.05;8.55;;;;;;;;;;6157089;23;20436;-75
2022/08/20 00:20:09;;;;;;;13.88;8.75;;;19.00;99.90;;;;;;6182096;23;20739;-75
2022/08/20 00:22:35;;;;;;;13.23;8.35;;;19.10;99.90;;;;;;6180557;23;20416;-75
2022/08/20 00:25:01;;;;;;;12.25;8.18;;;;;;;;;;6181815;23;20377;-75
2022/08/20 00:27:27;;;;;;;14.07;8.52;;;19.20;99.90;;;;;;6206814;23;20370;-75
2022/08/20 00:29:52;;;;;;;15.77;8.80;;;19.10;99.90;;;;;;6181206;23;20641;-75
2022/08/20 00:32:18;;;;;;;12.73;8.80;;;19.00;99.90;;;;;;6156011;23;20397;-75
2022/08/20 00:34:44;;;;;;;14.00;8.77;;;19.10;99.90;;;;;;6182539;23;20493;-75
2022/08/20 00:37:10;;;;;;;18.50;8.70;;;19.30;99.90;;;;;;6181964;23;20405;-75
2022/08/20 00:39:35;;;;;;;12.23;8.75;;;19.00;99.90;;;;;;6157104;23;20440;-75
2022/08/20 00:42:02;;;;;;;16.57;8.90;;;19.00;99.90;;;;;;6180940;23;20584;-75
2022/08/20 00:44:28;;;;;;;15.77;9.00;;;19.10;99.90;;;;;;6156538;23;20384;-74
2022/08/20 00:46:54;;;;;;;14.85;8.68;;;19.00;99.90;;;;;;6157782;23;20397;-75
2022/08/20 00:49:26;;;;;;;14.98;8.35;;;18.80;99.90;;;;;;6181124;23;20409;-77
2022/08/20 00:51:56;;;;;;;15.77;9.40;;;;;;;;;;6181246;23;20370;-77
2022/08/20 00:54:35;;;;;;;17.93;9.13;;;18.80;99.90;;;;;;6205614;23;20820;-77
2022/08/20 00:57:06;;;;;;;12.82;8.63;;;18.90;99.90;;;;;;6180976;23;20365;-77
2022/08/20 00:59:35;;;;;;;13.85;7.95;;;18.70;99.90;;;;;;6181846;23;20840;-77
2022/08/20 01:02:02;;;;;;;14.25;8.27;;;18.90;99.90;;;;;;6181397;23;20387;-77
2022/08/20 01:04:32;;;;;;;13.98;7.55;;;19.00;99.90;;;;;;6180625;23;20401;-77
2022/08/20 01:06:58;;;;;;;15.00;8.00;;;18.80;99.90;;;;;;6182731;23;20365;-77
2022/08/20 01:09:24;;;;;;;14.27;7.40;;;;;;;;;;6158536;23;20396;-77
2022/08/20 01:11:50;;;;;;;16.08;7.38;;;19.00;99.90;;;;;;6183949;23;20378;-77
2022/08/20 01:14:42;;;;;;;18.10;7.43;;;;;;;;;;6182100;23;20392;-77
2022/08/20 01:17:12;;;;;;;15.10;7.32;;;18.40;99.90;;;;;;6159634;23;20377;-77
2022/08/20 01:19:41;;;;;;;15.13;7.53;;;18.60;99.90;;;;;;6159342;23;20377;-77
2022/08/20 01:25:02;;;;;;;13.48;6.90;;;18.40;99.90;;;;;;6161108;23;20709;-77
2022/08/20 01:27:29;;;;;;;15.52;7.45;;;;;;;;;;6158581;23;20870;-77
2022/08/20 01:29:55;;;;;;;14.27;6.78;;;;;;;;;;6159117;23;20365;-77
2022/08/20 01:32:21;;;;;;;14.65;6.85;;;18.60;99.90;;;;;;6182745;23;20467;-77
2022/08/20 01:34:47;;;;;;;13.73;7.43;;;18.40;99.90;;;;;;6182666;23;20838;-77
2022/08/20 01:37:13;;;;;;;14.95;7.53;;;18.40;99.90;;;;;;6183013;23;20377;-77
2022/08/20 01:39:38;;;;;;;16.67;7.65;;;18.30;99.90;;;;;;6183894;23;20496;-77
2022/08/20 01:42:06;;;;;;;19.15;8.18;;;;;;;;;;6183608;23;20380;-78
2022/08/20 01:44:33;;;;;;;14.63;7.80;;;18.70;99.90;;;;;;6181891;23;20365;-77
2022/08/20 01:47:14;;;;;;;15.15;7.78;;;18.20;99.90;;;;;;6157891;23;20681;-77
2022/08/20 01:49:44;;;;;;;16.27;8.40;;;18.30;99.90;;;;;;6183658;23;20389;-77
2022/08/20 01:52:14;;;;;;;17.80;8.25;;;;;;;;;;6183356;23;20760;-77
2022/08/20 01:54:40;;;;;;;18.63;8.50;;;;;;;;;;6183156;23;20423;-77
2022/08/20 01:57:12;;;;;;;13.30;8.15;;;18.00;99.90;;;;;;6158361;23;20445;-77
2022/08/20 01:59:38;;;;;;;13.90;8.13;;;;;;;;;;6158174;23;20369;-77
2022/08/20 02:02:05;;;;;;;14.00;8.20;;;18.10;99.90;;;;;;6158361;23;20373;-77
2022/08/20 02:04:32;;;;;;;13.63;7.93;;;18.20;99.90;;;;;;6157891;23;20369;-77
2022/08/20 02:07:01;;;;;;;15.02;8.63;;;18.10;99.90;;;;;;6183352;23;20371;-77
2022/08/20 02:09:29;;;;;;;14.30;8.70;;;;;;;;;;6184505;23;20373;-77
2022/08/20 02:11:56;;;;;;;14.40;8.17;;;18.20;99.90;;;;;;6183683;23;20473;-77
2022/08/20 02:14:22;;;;;;;19.37;9.80;;;18.30;99.90;;;;;;6181988;23;20375;-77
2022/08/20 02:16:49;;;;;;;12.98;8.30;;;18.30;99.90;;;;;;6182381;23;20520;-77
2022/08/20 02:19:17;;;;;;;16.67;8.50;;;;;;;;;;6183695;23;20369;-77
2022/08/20 02:21:47;;;;;;;15.95;8.52;;;18.30;99.90;;;;;;6158258;23;20404;-76
2022/08/20 02:24:14;;;;;;;15.75;8.80;;;18.10;99.90;;;;;;6157970;23;20401;-77
2022/08/20 02:26:40;;;;;;;15.90;8.95;;;18.00;99.90;;;;;;6181828;23;20376;-77
2022/08/20 02:29:09;;;;;;;14.57;8.83;;;18.00;99.90;;;;;;6158085;23;20366;-77
2022/08/20 02:31:36;;;;;;;12.60;8.90;;;18.30;99.90;;;;;;6182450;23;20381;-77
2022/08/20 02:34:04;;;;;;;16.23;9.10;;;17.90;99.90;;;;;;6134017;23;20411;-77
2022/08/20 02:36:31;;;;;;;13.82;8.90;;;;;;;;;;6181914;23;20373;-77
2022/08/20 02:38:57;;;;;;;16.40;9.13;;;;;;;;;;6182737;23;20365;-77
2022/08/20 02:41:23;;;;;;;14.90;8.20;;;18.00;99.90;;;;;;6183228;23;20763;-76
2022/08/20 02:43:50;;;;;;;16.40;9.18;;;18.20;99.90;;;;;;6158221;23;20389;-77
2022/08/20 02:46:18;;;;;;;14.80;8.75;;;18.20;99.90;;;;;;6183619;23;20364;-76
2022/08/20 02:48:43;;;;;;;15.88;8.93;;;18.10;99.90;;;;;;6134542;23;20839;-76
2022/08/20 02:51:09;;;;;;;16.45;9.20;;;18.00;99.90;;;;;;6158269;23;20431;-76
2022/08/20 02:53:37;;;;;;;16.42;9.73;;;18.00;99.90;;;;;;6181698;23;20373;-77
2022/08/20 02:56:04;;;;;;;18.55;9.27;;;18.10;99.90;;;;;;6182518;23;20369;-76
2022/08/20 02:58:31;;;;;;;16.95;9.35;;;17.90;99.90;;;;;;6183195;23;20847;-76
2022/08/20 03:00:57;;;;;;;15.70;9.27;;;17.70;99.90;;;;;;6182815;23;20377;-76
2022/08/20 03:03:23;;;;;;;14.52;8.63;;;17.80;99.90;;;;;;6181402;23;20408;-76
2022/08/20 03:05:52;;;;;;;16.70;8.38;;;18.10;99.90;;;;;;6158254;23;20691;-77
2022/08/20 03:08:18;;;;;;;14.55;8.10;;;17.90;99.90;;;;;;6181154;23;20373;-76
2022/08/20 03:10:46;;;;;;;12.52;8.15;;;17.70;99.90;;;;;;6182895;23;20365;-76
2022/08/20 03:13:14;;;;;;;16.53;8.70;;;17.70;99.90;;;;;;6182326;23;20418;-77
2022/08/20 03:15:41;;;;;;;16.90;8.13;;;;;;;;;;6182221;23;20380;-77
2022/08/20 03:18:07;;;;;;;14.02;7.63;;;17.70;99.90;;;;;;6182718;23;20699;-77
2022/08/20 03:20:34;;;;;;;15.68;8.00;;;17.50;99.90;;;;;;6157697;23;20377;-77
2022/08/20 03:23:00;;;;;;;15.90;8.00;;;;;;;;;;6181605;23;20393;-76
2022/08/20 03:25:29;;;;;;;13.25;7.50;;;17.80;99.90;;;;;;6183264;23;20440;-77
2022/08/20 03:27:55;;;;;;;15.55;7.40;;;17.50;99.90;;;;;;6182825;23;20389;-77
2022/08/20 03:30:22;;;;;;;13.63;7.15;;;;;;;;;;6182478;23;20461;-77
2022/08/20 03:32:48;;;;;;;15.43;6.60;;;17.50;99.90;;;;;;6182595;23;20392;-77
2022/08/20 03:35:16;;;;;;;13.75;6.68;;;17.40;99.90;;;;;;6181900;23;20373;-76
2022/08/20 03:37:42;;;;;;;12.77;5.95;;;;;;;;;;6182591;23;20376;-76
2022/08/20 03:40:12;;;;;;;14.27;6.20;;;17.50;99.90;;;;;;6158479;23;20448;-76
2022/08/20 03:42:39;;;;;;;12.65;5.90;;;;;;;;;;6181534;23;20397;-76
2022/08/20 03:45:06;;;;;;;15.35;5.45;;;;;;;;;;6158078;23;20376;-76
2022/08/20 03:47:32;;;;;;;12.05;5.15;;;17.40;99.90;;;;;;6155992;23;21070;-76
2022/08/20 03:49:59;;;;;;;12.23;5.00;;;;;;;;;;6157272;23;20452;-76
2022/08/20 03:52:26;;;;;;;12.07;5.00;;;17.10;99.90;;;;;;6183086;23;20369;-76
2022/08/20 03:54:51;;;;;;;9.77;4.75;;;16.80;99.90;;;;;;6182334;23;20369;-76
2022/08/20 03:57:17;;;;;;;11.97;4.97;;;;;;;;;;6183390;23;20373;-76
2022/08/20 03:59:43;;;;;;;14.27;4.80;;;17.10;99.90;;;;;;6156534;23;20369;-76
2022/08/20 04:02:10;;;;;;;15.10;5.00;;;;;;;;;;6182100;23;20385;-77
2022/08/20 04:04:37;;;;;;;13.27;4.57;;;17.40;99.90;;;;;;6181579;23;20369;-76
2022/08/20 04:07:15;;;;;;;14.65;4.53;;;17.20;99.90;;;;;;6182503;23;20369;-76
2022/08/20 04:09:42;;;;;;;10.47;4.40;;;17.30;99.90;;;;;;6158033;23;20440;-76
2022/08/20 04:12:11;;;;;;;13.43;4.70;;;17.10;99.90;;;;;;6182857;23;20401;-76
2022/08/20 04:14:37;;;;;;;11.57;4.68;;;;;;;;;;6156927;23;20374;-76
2022/08/20 04:17:04;;;;;;;11.93;4.65;;;;;;;;;;6181454;23;20369;-76
2022/08/20 04:19:30;;;;;;;10.93;4.38;;;;;;;;;;6182587;23;20854;-76
2022/08/20 04:21:55;;;;;;;11.23;4.65;;;17.20;99.90;;;;;;6181137;23;20684;-74
2022/08/20 04:24:22;;;;;;;13.57;4.60;;;;;;;;;;6133114;23;20437;-74
2022/08/20 04:26:48;;;;;;;12.90;5.30;;;;;;;;;;6157418;23;20400;-74
2022/08/20 04:29:14;;;;;;;14.75;4.88;;;;;;;;;;6207128;23;20826;-74
2022/08/20 04:31:40;;;;;;;11.98;5.00;;;17.20;99.90;;;;;;6156691;23;20898;-76
2022/08/20 04:34:06;;;;;;;12.65;5.00;;;;;;;;;;6181115;23;20389;-76
2022/08/20 04:36:34;;;;;;;10.52;4.63;;;;;;;;;;6205589;23;20432;-76
2022/08/20 04:38:59;;;;;;;13.88;4.45;;;17.10;99.90;;;;;;6207146;23;20373;-76
2022/08/20 04:41:25;;;;;;;11.55;4.30;;;17.00;99.90;;;;;;6157205;23;20377;-76
2022/08/20 04:43:52;;;;;;;12.73;3.92;;;;;;;;;;6155672;23;20389;-77
2022/08/20 04:46:18;;;;;;;10.52;4.50;;;;;;;;;;6206306;23;20456;-77
2022/08/20 04:48:44;;;;;;;14.43;4.93;;;16.90;99.90;;;;;;6182770;23;20366;-77
2022/08/20 04:51:13;;;;;;;13.07;4.50;;;16.80;99.90;;;;;;6157654;23;20973;-77
2022/08/20 04:53:40;;;;;;;9.52;4.70;;;16.70;99.90;;;;;;6180598;23;20370;-77
2022/08/20 04:56:06;;;;;;;11.82;4.50;;;16.80;99.90;;;;;;6156901;23;20392;-77
2022/08/20 04:58:37;;;;;;;11.93;4.70;;;16.90;99.90;;;;;;6181901;23;20831;-77
2022/08/20 05:01:06;;;;;;;11.82;4.72;;;17.00;99.90;;;;;;6181453;23;20377;-77
2022/08/20 05:03:32;;;;;;;11.82;4.95;;;;;;;;;;6156204;23;20465;-76
2022/08/20 05:06:00;;;;;;;10.52;4.63;;;17.00;99.90;;;;;;6181191;23;20376;-76
2022/08/20 05:08:26;;;;;;;11.88;4.78;;;;;;;;;;6181037;23;20369;-77
2022/08/20 05:10:53;;;;;;;9.27;4.82;;;16.80;99.90;;;;;;6181075;23;20381;-77
2022/08/20 05:13:19;;;;;;;13.82;5.03;;;16.80;99.90;;;;;;6181199;23;20401;-77
2022/08/20 05:15:47;;;;;;;9.52;5.00;;;16.70;99.90;;;;;;6156401;23;20443;-78
2022/08/20 05:18:15;;;;;;;11.75;5.53;;;;;;;;;;6181206;23;20428;-77
2022/08/20 05:20:42;;;;;;;14.00;5.85;;;;;;;;;;6178327;23;20373;-77
2022/08/20 05:23:11;;;;;;;12.90;5.75;;;16.80;99.90;;;;;;6155693;23;20472;-77
2022/08/20 05:25:37;;;;;;;11.68;6.00;;;;;;;;;;6180534;23;20457;-75
2022/08/20 05:28:08;;;;;;;13.13;5.80;;;;;;;;;;6179388;23;20444;-75
2022/08/20 05:30:44;;;;;;;14.65;6.18;;;16.90;99.90;;;;;;6181575;23;20460;-75
2022/08/20 05:33:12;;;;;;;13.80;5.70;;;16.80;99.90;;;;;;6181283;23;20855;-75
2022/08/20 05:35:39;;;;;;;13.60;6.30;;;;;;;;;;6180994;23;20380;-75
2022/08/20 05:38:07;;;;;;;11.73;5.80;;;16.90;99.90;;;;;;6179410;23;20877;-75
2022/08/20 05:40:33;;;;;;;13.50;6.30;;;16.70;99.90;;;;;;6180838;23;20427;-75
2022/08/20 05:42:59;;;;;;;12.88;5.20;;;;;;;;;;6181414;23;20393;-75
2022/08/20 05:45:25;;;;;;;10.70;4.78;;;;;;;;;;6156075;23;20444;-75
2022/08/20 05:47:51;;;;;;;10.40;4.65;;;;;;;;;;6178784;23;20365;-75
2022/08/20 05:50:17;;;;;;;14.73;4.88;;;17.30;99.90;;;;;;6179824;23;20361;-75
2022/08/20 05:52:44;;;;;;;12.40;3.97;;;17.20;99.90;;;;;;6180895;23;20408;-75
2022/08/20 05:55:15;;;;;;;9.53;4.87;;;17.30;99.90;;;;;;6182667;23;20726;-75
2022/08/20 05:57:41;;;;;;;11.13;4.50;;;17.30;99.90;;;;;;6182540;23;20804;-75
2022/08/20 06:00:11;;;;;;;13.60;4.47;;;17.40;99.90;;;;;;6184205;23;20461;-76
2022/08/20 06:05:22;;;;;;;9.10;4.25;;;;;;;;;;6180887;23;20371;-74
2022/08/20 06:07:49;;;;;;;11.88;4.53;;;;;;;;;;6158221;23;20452;-74
2022/08/20 06:10:16;;;;;;;10.95;3.65;;;17.90;99.90;;;;;;6207374;23;20406;-74
2022/08/20 06:12:44;;;;;;;9.80;3.57;;;18.80;99.90;;;;;;6183037;23;20427;-74
2022/08/20 06:15:11;;;;;;;8.70;3.08;;;18.00;99.90;;;;;;6157750;23;20449;-74
2022/08/20 06:17:37;;;;;;;9.98;3.13;;;17.90;99.90;;;;;;6157311;23;20366;-74
2022/08/20 06:20:06;;;;;;;9.80;3.33;;;17.80;99.90;;;;;;6182709;23;20863;-74
2022/08/20 06:22:33;;;;;;;12.27;3.13;;;;;;;;;;6183767;23;20736;-74
2022/08/20 06:24:59;;;;;;;8.75;2.72;;;;;;;;;;6158621;23;20369;-74
2022/08/20 06:27:25;;;;;;;9.82;2.30;;;18.30;99.90;;;;;;6182939;23;20458;-74
2022/08/20 06:29:52;;;;;;;8.90;2.75;;;18.50;99.90;;;;;;6182353;23;20369;-73
2022/08/20 06:32:18;;;;;;;7.63;2.20;;;18.60;99.90;;;;;;6183311;23;20476;-74
2022/08/20 06:34:44;;;;;;;7.45;2.40;;;18.70;99.90;;;;;;6182892;23;20377;-74
2022/08/20 06:37:26;;;;;;;8.57;2.45;;;18.70;99.90;;;;;;6183894;23;20692;-74
2022/08/20 06:39:52;;;;;;;5.72;2.40;;;18.50;99.90;;;;;;6159338;23;20427;-74
2022/08/20 06:42:19;;;;;;;9.73;2.65;;;;;;;;;;6182294;23;20437;-73
2022/08/20 06:44:48;;;;;;;7.70;2.22;;;;;;;;;;6133769;23;20377;-73
2022/08/20 06:47:14;;;;;;;7.90;2.00;;;;;;;;;;6207419;23;20365;-73
2022/08/20 06:49:40;;;;;;;9.35;2.25;;;19.10;99.90;;;;;;6181884;23;20691;-74
2022/08/20 06:52:06;;;;;;;6.73;1.97;;;;;;;;;;6182528;23;20483;-74
2022/08/20 06:54:33;;;;;;;8.93;2.00;;;19.20;99.90;;;;;;6181375;23;20365;-74
2022/08/20 06:57:02;;;;;;;8.67;2.10;;;19.40;99.90;;;;;;6157811;23;20457;-75
2022/08/20 06:59:28;;;;;;;6.90;1.90;;;19.20;99.90;;;;;;6181782;23;20397;-73
2022/08/20 07:01:55;;;;;;;8.32;2.20;;;19.50;99.90;;;;;;6181145;23;20407;-74
2022/08/20 07:04:24;;;;;;;8.82;2.30;;;19.60;99.90;;;;;;6132558;23;20400;-74
2022/08/20 07:06:50;;;;;;;7.80;1.95;;;;;;;;;;6182307;23;20361;-74
2022/08/20 07:09:17;;;;;;;6.50;1.98;;;;;;;;;;6181231;23;20420;-73
2022/08/20 07:11:43;;;;;;;6.83;1.77;;;19.80;99.90;;;;;;6206471;23;20687;-74
2022/08/20 07:14:09;;;;;;;8.50;2.03;;;19.60;99.90;;;;;;6157153;23;20369;-73
2022/08/20 07:16:35;;;;;;;7.30;1.83;;;20.00;99.90;;;;;;6157731;23;20373;-74
2022/08/20 07:19:01;;;;;;;9.50;1.75;;;19.90;99.90;;;;;;6182216;23;20419;-74
2022/08/20 07:21:26;;;;;;;7.57;1.77;;;20.00;99.90;;;;;;6133032;23;20452;-74
2022/08/20 07:23:52;;;;;;;6.57;1.97;;;20.10;99.90;;;;;;6180520;23;20393;-74
2022/08/20 07:26:18;;;;;;;7.88;1.70;;;20.20;99.90;;;;;;6157234;23;20369;-73
2022/08/20 07:28:45;;;;;;;6.68;1.58;;;20.60;99.90;;;;;;6157857;23;20373;-74
2022/08/20 07:33:55;;;;;;;7.37;1.70;;;20.40;99.90;;;;;;6161554;23;20411;-74
2022/08/20 07:36:21;;;;;;;8.52;2.00;;;20.30;99.90;;;;;;6182152;23;20373;-74
2022/08/20 07:38:49;;;;;;;8.07;1.67;;;20.60;99.90;;;;;;6157441;23;20400;-73
2022/08/20 07:41:15;;;;;;;6.68;1.60;;;21.00;99.90;;;;;;6182089;23;20366;-74
2022/08/20 07:43:44;;;;;;;6.78;1.85;;;20.70;99.90;;;;;;6157831;23;20398;-74
2022/08/20 07:46:11;;;;;;;8.27;2.20;;;20.80;99.90;;;;;;6180890;23;20445;-74
2022/08/20 07:48:40;;;;;;;6.15;1.50;;;21.10;99.90;;;;;;6156281;23;20369;-75
2022/08/20 07:51:09;;;;;;;6.68;1.73;;;20.70;99.90;;;;;;6182024;23;20404;-74
2022/08/20 07:53:37;;;;;;;6.10;1.77;;;20.80;99.90;;;;;;6181994;23;20369;-74
2022/08/20 07:56:05;;;;;;;6.25;1.55;;;;;;;;;;6182674;23;20369;-74
2022/08/20 07:58:31;;;;;;;7.75;1.88;;;21.10;99.90;;;;;;6182029;23;20381;-74
2022/08/20 08:00:57;;;;;;;6.65;1.83;;;21.10;99.90;;;;;;6181139;23;20476;-75
2022/08/20 08:03:22;;;;;;;6.97;1.88;;;21.00;99.90;;;;;;6132555;23;20393;-75
2022/08/20 08:05:52;;;;;;;8.33;1.80;;;20.90;99.90;;;;;;6156642;23;20393;-77
2022/08/20 08:08:24;;;;;;;5.93;1.80;;;21.00;99.90;;;;;;6156507;23;20365;-75
2022/08/20 08:10:54;;;;;;;8.38;1.90;;;21.10;99.90;;;;;;6153620;23;20862;-76
2022/08/20 08:13:25;;;;;;;5.43;1.70;;;21.40;99.90;;;;;;6178702;23;20373;-76
2022/08/20 08:15:56;;;;;;;6.70;1.80;;;21.40;99.90;;;;;;6155740;23;20429;-75
2022/08/20 08:18:26;;;;;;;6.78;1.85;;;21.50;99.90;;;;;;6182069;23;20436;-75
2022/08/20 08:20:52;;;;;;;6.63;1.67;;;21.40;99.90;;;;;;6156984;23;20393;-78
2022/08/20 08:23:21;;;;;;;6.55;1.63;;;21.70;99.90;;;;;;6132309;23;20393;-79
2022/08/20 08:25:48;;;;;;;8.27;2.00;;;21.60;99.90;;;;;;6156691;23;20373;-78
2022/08/20 08:28:14;;;;;;;8.03;1.90;;;21.70;99.90;;;;;;6182661;23;20369;-76
2022/08/20 08:30:41;;;;;;;7.15;1.73;;;21.70;99.90;;;;;;6182006;23;20393;-76
2022/08/20 08:33:31;;;;;;;8.68;1.90;;;21.60;99.90;;;;;;6132682;23;20417;-76
2022/08/20 08:35:58;;;;;;;7.35;1.90;;;21.90;99.90;;;;;;6181302;23;20420;-75
2022/08/20 08:38:25;;;;;;;7.38;2.17;;;21.90;99.90;;;;;;6182149;23;20429;-74
2022/08/20 08:40:54;;;;;;;6.25;1.65;;;22.50;99.90;;;;;;6181549;23;20408;-75
2022/08/20 08:43:24;;;;;;;6.72;1.67;;;22.20;99.90;;;;;;6154339;23;20459;-74
2022/08/20 08:46:00;;;;;;;5.45;1.45;;;22.70;99.90;;;;;;6181874;23;20377;-75
2022/08/20 08:48:42;;;;;;;6.88;1.70;;;22.40;99.90;;;;;;6180985;23;20723;-75
2022/08/20 08:51:11;;;;;;;6.68;1.60;;;22.60;99.90;;;;;;6181900;23;20365;-74
2022/08/20 08:53:57;;;;;;;6.20;1.67;;;22.70;99.90;;;;;;6180070;23;20420;-74
2022/08/20 08:56:27;;;;;;;6.03;1.58;;;22.60;99.90;;;;;;6178320;23;20388;-74
2022/08/20 08:58:54;;;;;;;5.60;1.80;;;22.80;99.90;;;;;;6153806;23;20382;-75
2022/08/20 09:01:22;;;;;;;6.03;1.80;;;22.50;99.90;;;;;;6179144;23;20385;-74
2022/08/20 09:03:50;;;;;;;8.07;1.77;;;22.20;99.90;;;;;;6181354;23;20978;-74
2022/08/20 09:06:23;;;;;;;6.28;1.60;;;22.40;99.90;;;;;;6180636;23;20361;-74
2022/08/20 09:08:56;;;;;;;6.38;1.60;;;22.40;99.90;;;;;;6180824;23;20380;-75
2022/08/20 09:11:23;;;;;;;5.38;1.52;;;22.60;99.90;;;;;;6179166;23;20446;-74
2022/08/20 09:13:53;;;;;;;7.55;1.70;;;22.80;99.90;;;;;;6179794;23;20443;-74
2022/08/20 09:16:21;;;;;;;8.05;1.85;;;23.00;99.90;;;;;;6181467;23;20373;-74
2022/08/20 09:18:47;;;;;;;7.32;1.65;;;23.40;99.90;;;;;;6130133;23;20377;-75
2022/08/20 09:21:13;;;;;;;6.28;1.77;;;23.30;99.90;;;;;;6180592;23;20833;-75
2022/08/20 09:23:40;;;;;;;6.28;1.85;;;23.30;99.90;;;;;;6155833;23;20389;-76
2022/08/20 09:26:06;;;;;;;7.88;2.15;;;23.60;99.90;;;;;;6180776;23;20370;-76
2022/08/20 09:28:33;;;;;;;6.18;1.75;;;23.70;99.90;;;;;;6132266;23;20379;-76
2022/08/20 09:30:59;;;;;;;5.95;1.88;;;23.70;99.90;;;;;;6154430;23;20420;-76
2022/08/20 09:33:25;;;;;;;10.63;2.07;;;23.70;99.90;;;;;;6181814;23;20443;-76
2022/08/20 09:35:51;;;;;;;4.88;1.65;;;23.60;99.90;;;;;;6180011;23;20452;-76
2022/08/20 09:38:17;;;;;;;6.37;1.70;;;23.70;99.90;;;;;;6155286;23;20405;-76
2022/08/20 09:40:43;;;;;;;6.82;1.70;;;23.60;99.90;;;;;;6181868;23;20442;-75
2022/08/20 09:43:31;;;;;;;5.65;1.45;;;23.60;99.90;;;;;;6131247;23;20393;-75
2022/08/20 09:45:57;;;;;;;7.30;2.00;;;23.40;99.90;;;;;;6132381;23;20382;-75
2022/08/20 09:48:23;;;;;;;8.50;2.10;;;23.10;99.90;;;;;;6156946;23;20851;-75
2022/08/20 09:50:49;;;;;;;6.72;1.67;;;23.50;99.90;;;;;;6182174;23;20407;-74
2022/08/20 09:53:17;;;;;;;5.95;1.90;;;23.30;99.90;;;;;;6179522;23;20840;-76
2022/08/20 09:55:45;;;;;;;7.18;1.88;;;23.30;99.90;;;;;;6181784;23;20381;-77
2022/08/20 09:58:32;;;;;;;6.68;1.75;;;23.50;99.90;;;;;;6132511;23;20373;-77
2022/08/20 10:01:03;;;;;;;8.43;2.10;;;23.90;99.90;;;;;;6180923;23;20847;-76
2022/08/20 10:03:28;;;;;;;6.22;1.85;;;23.90;99.90;;;;;;6180385;23;20389;-76
2022/08/20 10:05:54;;;;;;;9.83;2.10;;;23.90;99.90;;;;;;6156072;23;20449;-77
2022/08/20 10:08:20;;;;;;;5.27;1.70;;;24.10;99.90;;;;;;6157255;23;20422;-76
2022/08/20 10:10:45;;;;;;;6.00;1.90;;;23.90;99.90;;;;;;6157325;23;20415;-75
2022/08/20 10:13:11;;;;;;;5.77;1.60;;;24.10;99.90;;;;;;6132864;23;20394;-76
2022/08/20 10:15:37;;;;;;;6.90;2.03;;;23.50;99.90;;;;;;6182628;23;20720;-75
2022/08/20 10:18:06;;;;;;;5.85;1.80;;;23.20;99.90;;;;;;6158027;23;20423;-76
2022/08/20 10:20:32;;;;;;;7.50;1.88;;;23.40;99.90;;;;;;6183290;23;20369;-76
2022/08/20 10:22:58;;;;;;;4.68;1.70;;;23.70;99.90;;;;;;6156811;23;20392;-76
2022/08/20 10:25:24;;;;;;;5.82;1.80;;;23.80;99.90;;;;;;6183214;23;20455;-76
2022/08/20 10:27:49;;;;;;;7.30;1.70;;;23.50;99.90;;;;;;6158714;23;20366;-76
2022/08/20 10:30:15;;;;;;;6.33;1.97;;;23.40;99.90;;;;;;6156994;23;20496;-77
2022/08/20 10:32:41;;;;;;;6.45;2.05;;;23.50;99.90;;;;;;6182612;23;20824;-77
2022/08/20 10:35:08;;;;;;;5.75;1.85;;;23.60;99.90;;;;;;6183088;23;20832;-76
2022/08/20 10:37:35;;;;;;;6.88;1.80;;;23.60;99.90;;;;;;6157052;23;20468;-77
2022/08/20 10:40:01;;;;;;;6.68;1.70;;;23.10;99.90;;;;;;6181354;23;20373;-76
2022/08/20 10:42:26;;;;;;;8.07;2.10;;;23.30;99.90;;;;;;6181369;23;20369;-76
2022/08/20 10:44:52;;;;;;;6.57;1.70;;;23.40;99.90;;;;;;6181314;23;20427;-76
2022/08/20 10:47:23;;;;;;;4.35;1.50;;;24.00;99.90;;;;;;6181628;23;20377;-75
2022/08/20 10:49:50;;;;;;;7.50;1.70;;;24.20;99.90;;;;;;6180990;23;20369;-75
2022/08/20 10:52:17;;;;;;;5.93;1.70;;;24.40;99.90;;;;;;6157347;23;20427;-75
2022/08/20 10:54:42;;;;;;;5.68;1.80;;;24.40;99.90;;;;;;6181596;23;20369;-75
2022/08/20 10:57:19;;;;;;;6.80;1.50;;;24.50;99.90;;;;;;6132883;23;20376;-75
2022/08/20 10:59:46;;;;;;;5.33;1.63;;;24.30;99.90;;;;;;6181686;23;20362;-76
2022/08/20 11:02:12;;;;;;;4.93;1.80;;;24.00;99.90;;;;;;6180765;23;20378;-76
2022/08/20 11:04:39;;;;;;;5.53;1.80;;;24.10;99.90;;;;;;6179430;23;20365;-76
2022/08/20 11:07:14;;;;;;;6.10;1.75;;;24.00;99.90;;;;;;6156090;23;20376;-75
2022/08/20 11:09:41;;;;;;;6.93;2.03;;;24.10;99.90;;;;;;6181866;23;20835;-76
2022/08/20 11:12:07;;;;;;;7.33;1.93;;;24.00;99.90;;;;;;6156135;23;20362;-76
2022/08/20 11:14:33;;;;;;;6.83;2.10;;;23.90;99.90;;;;;;6182601;23;20839;-76
2022/08/20 11:16:59;;;;;;;7.23;2.00;;;23.90;99.90;;;;;;6156750;23;20369;-76
2022/08/20 11:19:25;;;;;;;6.88;1.95;;;23.80;99.90;;;;;;6182234;23;20369;-76
2022/08/20 11:21:51;;;;;;;9.07;2.10;;;23.80;99.90;;;;;;6156859;23;20376;-76
2022/08/20 11:24:17;;;;;;;6.47;1.90;;;23.70;99.90;;;;;;6181245;23;20412;-76
2022/08/20 11:26:46;;;;;;;8.30;2.20;;;23.70;99.90;;;;;;6156402;23;20396;-76
2022/08/20 11:29:12;;;;;;;6.75;2.03;;;23.70;99.90;;;;;;6182324;23;20420;-76
2022/08/20 11:31:40;;;;;;;6.82;1.90;;;23.80;99.90;;;;;;6183616;23;20358;-77
2022/08/20 11:34:06;;;;;;;6.55;2.13;;;23.90;99.90;;;;;;6155053;23;20447;-76
2022/08/20 11:36:32;;;;;;;6.77;2.23;;;24.00;99.90;;;;;;6107426;23;20461;-76
2022/08/20 11:38:58;;;;;;;8.13;2.40;;;24.10;99.90;;;;;;6179314;23;20689;-76
2022/08/20 11:41:23;;;;;;;8.20;2.28;;;24.30;99.90;;;;;;6181188;23;20381;-76
2022/08/20 11:43:52;;;;;;;5.93;2.20;;;24.70;99.90;;;;;;6181043;23;20389;-76
2022/08/20 11:46:18;;;;;;;7.38;1.90;;;25.00;99.90;;;;;;6156713;23;20427;-75
2022/08/20 11:48:43;;;;;;;6.10;1.70;;;25.20;99.90;;;;;;6180839;23;20727;-77
2022/08/20 11:51:09;;;;;;;7.13;2.10;;;25.20;99.90;;;;;;6179903;23;20365;-77
2022/08/20 11:53:35;;;;;;;5.88;2.00;;;25.30;99.90;;;;;;6155915;23;20404;-77
2022/08/20 11:56:01;;;;;;;5.50;1.80;;;25.30;99.90;;;;;;6181655;23;20401;-76
2022/08/20 11:58:26;;;;;;;6.55;2.15;;;25.00;99.90;;;;;;6157594;23;20475;-77
2022/08/20 12:00:54;;;;;;;8.77;2.20;;;25.00;99.90;;;;;;6107846;23;21291;-77
2022/08/20 12:03:20;;;;;;;9.55;2.10;;;24.60;99.90;;;;;;6180257;23;20393;-77
2022/08/20 12:05:46;;;;;;;5.68;1.90;;;24.60;99.90;;;;;;6179508;23;20770;-77
2022/08/20 12:08:13;;;;;;;6.82;2.17;;;24.50;99.90;;;;;;6180622;23;20684;-77
2022/08/20 12:10:39;;;;;;;5.38;2.08;;;24.30;99.90;;;;;;6181086;23;20744;-76
2022/08/20 12:13:06;;;;;;;5.30;1.70;;;24.40;99.90;;;;;;6181042;23;20403;-77
2022/08/20 12:15:36;;;;;;;13.43;2.40;;;24.40;99.90;;;;;;6156581;23;20373;-77
2022/08/20 12:18:06;;;;;;;6.80;2.00;;;24.30;99.90;;;;;;6181604;23;20493;-78
2022/08/20 12:20:32;;;;;;;9.43;2.30;;;24.00;99.90;;;;;;6181369;23;20442;-77
2022/08/20 12:22:58;;;;;;;14.57;2.40;;;24.40;99.90;;;;;;6157186;23;20456;-77
2022/08/20 12:25:25;;;;;;;7.30;2.03;;;24.00;99.90;;;;;;6181460;23;20428;-77
2022/08/20 12:27:51;;;;;;;6.70;1.95;;;24.20;99.90;;;;;;6179519;23;20373;-77
2022/08/20 12:30:20;;;;;;;8.05;1.80;;;24.20;99.90;;;;;;6179722;23;20423;-77
2022/08/20 12:32:46;;;;;;;6.93;1.85;;;24.60;99.90;;;;;;6180097;23;20412;-77
2022/08/20 12:35:14;;;;;;;6.45;2.03;;;24.90;99.90;;;;;;6156165;23;20380;-77
2022/08/20 12:37:41;;;;;;;5.65;1.98;;;24.50;99.90;;;;;;6155478;23;20377;-77
2022/08/20 12:40:12;;;;;;;5.37;1.80;;;24.80;99.90;;;;;;6155743;23;20373;-77
2022/08/20 12:42:38;;;;;;;6.70;1.90;;;24.80;99.90;;;;;;6179530;23;20447;-79
2022/08/20 12:45:05;;;;;;;7.03;2.10;;;25.00;99.90;;;;;;6156439;23;20365;-79
2022/08/20 12:47:39;;;;;;;9.15;2.40;;;25.10;99.90;;;;;;6180290;23;20372;-76
2022/08/20 12:50:12;;;;;;;7.15;2.47;;;25.40;99.90;;;;;;6178587;23;20366;-77
2022/08/20 12:52:39;;;;;;;5.72;1.83;;;25.60;99.90;;;;;;6179545;23;20369;-77
2022/08/20 12:55:07;;;;;;;6.38;1.98;;;25.20;99.90;;;;;;6155923;23;20370;-77
2022/08/20 12:57:37;;;;;;;7.38;2.10;;;25.20;99.90;;;;;;6155501;23;20381;-76
2022/08/20 13:00:26;;;;;;;8.15;2.00;;;25.00;99.90;;;;;;6155062;23;20369;-76
2022/08/20 13:02:54;;;;;;;6.13;1.90;;;25.00;99.90;;;;;;6169536;23;20389;-76
2022/08/20 13:05:20;;;;;;;5.22;2.03;;;24.80;99.90;;;;;;6156829;23;20847;-75
2022/08/20 13:07:47;;;;;;;6.47;2.10;;;26.50;99.90;;;;;;6157286;23;20409;-75
2022/08/20 13:10:24;;;;;;;6.88;2.00;;;25.00;99.90;;;;;;6183148;23;20372;-75